createdAt,value
2019-02-17T00:00:38.483Z,28.57
2019-02-17T00:03:42.324Z,29.57
2019-02-17T00:06:45.866Z,24.13
2019-02-17T00:09:49.694Z,28.93
2019-02-17T00:12:53.242Z,26.57
2019-02-17T00:15:56.822Z,22.60
2019-02-17T00:19:00.371Z,24.23
2019-02-17T00:22:03.948Z,29.43
2019-02-17T00:25:07.587Z,25.30
2019-02-17T00:28:11.436Z,126.90
2019-02-17T00:31:15.273Z,109.07
2019-02-17T00:34:18.824Z,125.67
2019-02-17T00:37:22.373Z,107.43
2019-02-17T00:40:26.275Z,96.20
2019-02-17T00:43:29.817Z,90.83
2019-02-17T00:46:33.358Z,90.30
2019-02-17T00:49:37.183Z,88.33
2019-02-17T00:52:40.723Z,94.43
2019-02-17T00:55:44.522Z,78.03
2019-02-17T00:58:48.074Z,80.13
2019-02-17T01:01:51.635Z,85.37
2019-02-17T01:04:55.177Z,78.80
2019-02-17T01:07:58.715Z,86.23
2019-02-17T01:11:02.270Z,76.60
2019-02-17T01:14:05.891Z,69.17
2019-02-17T01:17:09.434Z,69.23
2019-02-17T01:20:13.230Z,61.70
2019-02-17T01:23:17.110Z,70.53
2019-02-17T01:26:20.664Z,68.97
2019-02-17T01:29:24.219Z,68.03
2019-02-17T01:32:28.053Z,63.20
2019-02-17T01:35:31.603Z,59.13
2019-02-17T01:38:35.195Z,55.37
2019-02-17T01:41:39.058Z,59.80
2019-02-17T01:44:42.602Z,61.57
2019-02-17T01:47:46.143Z,52.03
2019-02-17T01:50:49.699Z,50.30
2019-02-17T01:53:53.243Z,49.47
2019-02-17T01:56:56.804Z,48.47
2019-02-17T02:00:00.423Z,49.10
2019-02-17T02:03:04.140Z,49.47
2019-02-17T02:06:07.621Z,47.03
2019-02-17T02:09:11.195Z,45.13
2019-02-17T02:12:14.790Z,48.67
2019-02-17T02:15:18.296Z,46.93
2019-02-17T02:18:21.831Z,43.97
2019-02-17T02:21:25.383Z,44.00
2019-02-17T02:24:28.924Z,43.03
2019-02-17T02:27:33.009Z,39.90
2019-02-17T02:30:36.881Z,41.83
2019-02-17T02:33:40.724Z,41.00
2019-02-17T02:36:44.274Z,37.43
2019-02-17T02:39:47.881Z,40.20
2019-02-17T02:42:51.446Z,38.33
2019-02-17T02:45:55.555Z,34.07
2019-02-17T02:48:59.104Z,34.77
2019-02-17T02:52:02.676Z,33.90
2019-02-17T02:55:06.325Z,32.37
2019-02-17T02:58:09.886Z,32.03
2019-02-17T03:01:13.823Z,34.93
2019-02-17T03:04:17.366Z,32.10
2019-02-17T03:07:22.087Z,31.70
2019-02-17T03:10:25.868Z,34.13
2019-02-17T03:13:29.551Z,31.97
2019-02-17T03:16:33.207Z,29.47
2019-02-17T03:19:36.767Z,33.17
2019-02-17T03:22:40.650Z,27.83
2019-02-17T03:25:45.470Z,31.83
2019-02-17T03:28:49.094Z,29.40
2019-02-17T03:31:52.650Z,30.37
2019-02-17T03:34:56.209Z,26.37
2019-02-17T03:37:59.758Z,22.83
2019-02-17T03:41:03.383Z,26.30
2019-02-17T03:44:07.000Z,26.43
2019-02-17T03:47:10.556Z,28.27
2019-02-17T03:50:14.430Z,24.23
2019-02-17T03:53:18.168Z,22.30
2019-02-17T03:56:22.189Z,21.77
2019-02-17T03:59:25.747Z,20.20
2019-02-17T04:02:29.572Z,25.30
2019-02-17T04:05:33.459Z,23.40
2019-02-17T04:08:37.332Z,22.97
2019-02-17T04:11:40.882Z,22.03
2019-02-17T04:14:44.792Z,21.97
2019-02-17T04:17:48.661Z,20.40
2019-02-17T04:20:52.628Z,18.70
2019-02-17T04:23:56.182Z,19.57
2019-02-17T04:26:59.760Z,20.83
2019-02-17T04:30:03.479Z,21.00
2019-02-17T04:33:07.353Z,21.00
2019-02-17T04:36:11.244Z,21.03
2019-02-17T04:39:15.403Z,18.77
2019-02-17T04:42:18.972Z,19.63
2019-02-17T04:45:23.174Z,17.73
2019-02-17T04:48:27.058Z,17.83
2019-02-17T04:51:30.600Z,16.03
2019-02-17T04:54:34.154Z,19.97
2019-02-17T04:57:38.113Z,20.67
2019-02-17T05:00:41.660Z,17.13
2019-02-17T05:03:45.213Z,17.17
2019-02-17T05:06:48.766Z,18.17
2019-02-17T05:09:52.314Z,14.57
2019-02-17T05:12:55.877Z,14.97
2019-02-17T05:15:59.428Z,17.87
2019-02-17T05:19:02.990Z,16.17
2019-02-17T05:22:06.772Z,14.90
2019-02-17T05:25:10.607Z,15.60
2019-02-17T05:28:14.468Z,14.97
2019-02-17T05:31:18.023Z,16.07
2019-02-17T05:34:21.587Z,16.23
2019-02-17T05:37:25.133Z,15.33
2019-02-17T05:40:28.699Z,15.40
2019-02-17T05:43:32.251Z,15.13
2019-02-17T05:46:35.796Z,14.90
2019-02-17T05:49:39.347Z,15.70
2019-02-17T05:52:42.903Z,16.03
2019-02-17T05:55:46.717Z,14.20
2019-02-17T05:58:50.271Z,15.20
2019-02-17T06:01:54.185Z,14.17
2019-02-17T06:04:58.047Z,12.00
2019-02-17T06:08:01.917Z,13.17
2019-02-17T06:11:05.466Z,13.40
2019-02-17T06:14:09.300Z,12.07
2019-02-17T06:17:13.388Z,10.47
2019-02-17T06:20:17.220Z,13.87
2019-02-17T06:23:21.132Z,13.10
2019-02-17T06:26:24.688Z,10.63
2019-02-17T06:29:28.239Z,11.20
2019-02-17T06:32:31.789Z,11.83
2019-02-17T06:35:35.343Z,14.93
2019-02-17T06:38:39.442Z,10.77
2019-02-17T06:41:43.022Z,10.90
2019-02-17T06:44:46.570Z,13.37
2019-02-17T06:47:50.112Z,10.90
2019-02-17T06:50:53.659Z,9.57
2019-02-17T06:53:57.228Z,10.93
2019-02-17T06:57:19.116Z,10.23
2019-02-17T07:00:37.744Z,13.03
2019-02-17T07:03:41.636Z,10.50
2019-02-17T07:06:49.508Z,10.17
2019-02-17T07:09:53.047Z,9.43
2019-02-17T07:12:56.595Z,11.23
2019-02-17T07:16:00.148Z,9.97
2019-02-17T07:19:03.692Z,11.10
2019-02-17T07:22:07.558Z,10.20
2019-02-17T07:25:11.114Z,10.80
2019-02-17T07:28:14.907Z,10.27
2019-02-17T07:31:18.730Z,9.27
2019-02-17T07:34:22.600Z,10.07
2019-02-17T07:37:33.042Z,9.23
2019-02-17T07:40:31.548Z,10.43
2019-02-17T07:43:35.365Z,9.80
2019-02-17T07:46:38.915Z,9.57
2019-02-17T07:49:42.705Z,11.27
2019-02-17T07:52:46.717Z,13.07
2019-02-17T07:55:50.338Z,9.27
2019-02-17T07:58:53.885Z,9.47
2019-02-17T08:01:57.434Z,10.00
2019-02-17T08:05:01.250Z,10.53
2019-02-17T08:08:04.794Z,10.70
2019-02-17T08:11:08.344Z,8.93
2019-02-17T08:14:12.298Z,11.10
2019-02-17T08:17:15.854Z,10.30
2019-02-17T08:20:19.404Z,9.17
2019-02-17T08:23:22.946Z,9.93
2019-02-17T08:26:26.498Z,9.10
2019-02-17T08:29:30.322Z,11.20
2019-02-17T08:32:33.874Z,8.47
2019-02-17T08:35:37.427Z,10.40
2019-02-17T08:38:41.245Z,9.33
2019-02-17T08:41:44.802Z,10.07
2019-02-17T08:44:48.344Z,9.83
2019-02-17T08:47:52.182Z,12.47
2019-02-17T08:50:55.731Z,9.20
2019-02-17T08:53:59.620Z,11.73
2019-02-17T08:57:03.246Z,8.30
2019-02-17T09:00:08.579Z,9.33
2019-02-17T09:03:12.632Z,8.10
2019-02-17T09:06:16.559Z,10.47
2019-02-17T09:09:20.103Z,11.40
2019-02-17T09:12:23.821Z,9.03
2019-02-17T09:15:27.377Z,13.30
2019-02-17T09:18:30.926Z,9.33
2019-02-17T09:21:34.472Z,8.17
2019-02-17T09:24:38.090Z,9.17
2019-02-17T09:27:41.938Z,9.80
2019-02-17T09:30:45.472Z,8.73
2019-02-17T09:33:49.382Z,7.63
2019-02-17T09:36:52.883Z,8.47
2019-02-17T09:39:56.758Z,11.13
2019-02-17T09:43:00.676Z,8.30
2019-02-17T09:46:04.863Z,9.70
2019-02-17T09:49:08.409Z,7.07
2019-02-17T09:52:11.964Z,12.10
2019-02-17T09:55:15.778Z,10.43
2019-02-17T09:58:19.335Z,10.70
2019-02-17T10:01:23.179Z,8.73
2019-02-17T10:04:26.727Z,11.10
2019-02-17T10:07:30.277Z,11.87
2019-02-17T10:10:34.135Z,9.80
2019-02-17T10:13:37.667Z,9.73
2019-02-17T10:16:41.218Z,11.77
2019-02-17T10:19:44.775Z,31.87
2019-02-17T10:22:48.337Z,41.63
2019-02-17T10:25:51.886Z,41.33
2019-02-17T10:28:55.444Z,38.20
2019-02-17T10:31:59.276Z,38.97
2019-02-17T10:35:02.833Z,38.80
2019-02-17T10:38:07.335Z,38.03
2019-02-17T10:41:11.138Z,40.03
2019-02-17T10:44:14.696Z,38.97
2019-02-17T10:47:18.251Z,42.07
2019-02-17T10:50:21.796Z,64.77
2019-02-17T10:53:25.362Z,91.67
2019-02-17T10:56:29.231Z,94.43
2019-02-17T10:59:32.792Z,85.70
2019-02-17T11:02:46.351Z,97.87
2019-02-17T11:05:41.926Z,88.50
2019-02-17T11:08:45.834Z,90.47
2019-02-17T11:11:49.602Z,85.77
2019-02-17T11:14:53.164Z,86.80
2019-02-17T11:17:56.774Z,80.63
2019-02-17T11:21:00.374Z,69.53
2019-02-17T11:24:03.931Z,74.87
2019-02-17T11:27:07.478Z,66.40
2019-02-17T11:30:12.926Z,70.47
2019-02-17T11:33:16.831Z,62.03
2019-02-17T11:36:20.385Z,65.20
2019-02-17T11:39:24.190Z,63.50
2019-02-17T11:42:27.745Z,50.90
2019-02-17T11:45:31.552Z,46.00
2019-02-17T11:48:35.107Z,46.37
2019-02-17T11:51:39.260Z,42.07
2019-02-17T11:54:43.084Z,40.67
2019-02-17T11:57:46.632Z,43.43
2019-02-17T12:00:50.200Z,39.80
2019-02-17T12:03:54.316Z,46.20
2019-02-17T12:07:00.242Z,39.20
2019-02-17T12:10:03.160Z,36.23
2019-02-17T12:13:07.286Z,34.30
2019-02-17T12:16:10.847Z,36.70
2019-02-17T12:19:14.680Z,33.50
2019-02-17T12:22:32.572Z,28.90
2019-02-17T12:25:41.199Z,25.33
2019-02-17T12:28:49.678Z,28.00
2019-02-17T12:31:53.410Z,26.60
2019-02-17T12:34:57.134Z,23.87
2019-02-17T12:38:00.977Z,26.20
2019-02-17T12:41:04.549Z,19.93
2019-02-17T12:44:08.121Z,20.43
2019-02-17T12:47:11.925Z,21.43
2019-02-17T12:50:15.474Z,21.57
2019-02-17T12:53:19.260Z,21.90
2019-02-17T12:56:22.815Z,18.23
2019-02-17T12:59:26.628Z,19.37
2019-02-17T13:02:30.422Z,24.23
2019-02-17T13:05:34.321Z,16.83
2019-02-17T13:08:38.494Z,14.47
2019-02-17T13:11:42.266Z,17.53
2019-02-17T13:14:45.895Z,16.57
2019-02-17T13:17:49.876Z,15.43
2019-02-17T13:20:53.432Z,15.37
2019-02-17T13:23:57.237Z,14.60
2019-02-17T13:27:00.795Z,13.63
2019-02-17T13:30:05.439Z,14.57
2019-02-17T13:33:09.498Z,12.63
2019-02-17T13:36:13.310Z,13.07
2019-02-17T13:39:16.854Z,14.40
2019-02-17T13:42:20.417Z,13.67
2019-02-17T13:45:24.273Z,13.40
2019-02-17T13:48:28.172Z,12.27
2019-02-17T13:51:31.731Z,13.40
2019-02-17T13:54:35.280Z,10.40
2019-02-17T13:57:38.829Z,13.83
2019-02-17T14:00:42.702Z,17.13
2019-02-17T14:03:48.986Z,24.33
2019-02-17T14:06:51.539Z,27.50
2019-02-17T14:09:55.094Z,29.00
2019-02-17T14:12:58.962Z,29.83
2019-02-17T14:16:02.878Z,28.97
2019-02-17T14:19:06.430Z,27.70
2019-02-17T14:22:10.285Z,31.80
2019-02-17T14:25:14.023Z,31.10
2019-02-17T14:28:17.581Z,30.70
2019-02-17T14:31:21.137Z,32.07
2019-02-17T14:34:24.688Z,31.93
2019-02-17T14:37:28.568Z,29.67
2019-02-17T14:40:32.132Z,33.30
2019-02-17T14:43:35.702Z,33.07
2019-02-17T14:46:39.304Z,35.53
2019-02-17T14:49:42.856Z,32.80
2019-02-17T14:52:46.421Z,28.20
2019-02-17T14:55:50.572Z,26.37
2019-02-17T14:58:54.449Z,22.63
2019-02-17T15:01:58.597Z,21.97
2019-02-17T15:05:02.248Z,24.73
2019-02-17T15:08:05.807Z,36.63
2019-02-17T15:11:09.380Z,31.70
2019-02-17T15:14:13.249Z,35.47
2019-02-17T15:17:16.859Z,29.67
2019-02-17T15:20:21.075Z,20.33
2019-02-17T15:23:24.640Z,23.00
2019-02-17T15:26:28.306Z,21.17
2019-02-17T15:29:31.888Z,22.47
2019-02-17T15:32:35.430Z,19.40
2019-02-17T15:35:38.976Z,18.50
2019-02-17T15:38:42.856Z,19.03
2019-02-17T15:41:46.417Z,16.90
2019-02-17T15:44:50.302Z,14.40
2019-02-17T15:47:53.853Z,18.70
2019-02-17T15:51:06.268Z,36.70
2019-02-17T15:54:02.843Z,54.73
2019-02-17T15:57:06.404Z,26.10
2019-02-17T16:00:12.001Z,26.93
2019-02-17T16:03:15.558Z,26.13
2019-02-17T16:06:19.116Z,25.80
2019-02-17T16:09:22.953Z,26.90
2019-02-17T16:12:26.855Z,21.77
2019-02-17T16:15:30.402Z,23.73
2019-02-17T16:18:33.963Z,20.60
2019-02-17T16:21:37.528Z,36.50
2019-02-17T16:24:41.189Z,20.17
2019-02-17T16:27:45.120Z,23.57
2019-02-17T16:30:48.670Z,23.00
2019-02-17T16:33:52.497Z,17.73
2019-02-17T16:36:56.172Z,17.00
2019-02-17T16:39:59.718Z,17.37
2019-02-17T16:43:03.543Z,20.07
2019-02-17T16:46:07.130Z,18.30
2019-02-17T16:49:10.923Z,20.77
2019-02-17T16:52:14.521Z,17.57
2019-02-17T16:55:18.071Z,39.73
2019-02-17T16:58:21.629Z,42.03
2019-02-17T17:01:25.175Z,55.03
2019-02-17T17:04:28.733Z,61.47
2019-02-17T17:07:32.285Z,54.20
2019-02-17T17:10:36.243Z,42.63
2019-02-17T17:13:39.806Z,38.83
2019-02-17T17:16:43.355Z,35.83
2019-02-17T17:19:46.910Z,34.07
2019-02-17T17:22:50.465Z,32.80
2019-02-17T17:25:54.020Z,34.20
2019-02-17T17:28:57.836Z,31.93
2019-02-17T17:32:01.377Z,32.03
2019-02-17T17:35:05.664Z,30.07
2019-02-17T17:38:09.217Z,29.17
2019-02-17T17:41:12.787Z,28.43
2019-02-17T17:44:16.346Z,30.10
2019-02-17T17:47:19.898Z,30.53
2019-02-17T17:50:24.394Z,27.80
2019-02-17T17:53:27.936Z,32.07
2019-02-17T17:56:31.490Z,25.37
2019-02-17T17:59:35.056Z,24.73
2019-02-17T18:02:38.926Z,29.03
2019-02-17T18:05:42.484Z,25.60
2019-02-17T18:08:46.040Z,31.30
2019-02-17T18:11:49.598Z,26.07
2019-02-17T18:14:53.156Z,23.70
2019-02-17T18:17:57.039Z,24.80
2019-02-17T18:21:00.858Z,30.67
2019-02-17T18:24:04.739Z,25.47
2019-02-17T18:27:08.889Z,27.73
2019-02-17T18:30:13.457Z,21.33
2019-02-17T18:33:17.007Z,24.80
2019-02-17T18:36:20.563Z,21.80
2019-02-17T18:39:24.115Z,22.73
2019-02-17T18:42:27.933Z,24.97
2019-02-17T18:45:31.489Z,27.87
2019-02-17T18:48:35.043Z,29.37
2019-02-17T18:51:38.930Z,26.07
2019-02-17T18:54:42.724Z,18.73
2019-02-17T18:57:50.249Z,17.63
2019-02-17T19:00:51.566Z,20.23
2019-02-17T19:03:55.154Z,19.43
2019-02-17T19:06:58.676Z,20.53
2019-02-17T19:10:02.491Z,19.07
2019-02-17T19:13:06.047Z,22.00
2019-02-17T19:16:10.017Z,22.70
2019-02-17T19:19:13.568Z,29.27
2019-02-17T19:22:17.454Z,21.40
2019-02-17T19:25:21.072Z,18.70
2019-02-17T19:28:24.635Z,18.67
2019-02-17T19:31:28.187Z,25.30
2019-02-17T19:34:31.734Z,31.40
2019-02-17T19:37:35.297Z,32.83
2019-02-17T19:40:39.149Z,41.60
2019-02-17T19:43:43.284Z,67.20
2019-02-17T19:46:46.934Z,41.63
2019-02-17T19:49:50.503Z,43.13
2019-02-17T19:52:54.068Z,36.43
2019-02-17T19:55:57.992Z,32.57
2019-02-17T19:59:01.556Z,29.73
2019-02-17T20:02:05.165Z,25.43
2019-02-17T20:05:12.108Z,25.13
2019-02-17T20:08:15.664Z,24.40
2019-02-17T20:11:19.220Z,24.53
2019-02-17T20:14:22.786Z,23.03
2019-02-17T20:17:26.661Z,22.47
2019-02-17T20:20:30.221Z,23.43
2019-02-17T20:23:34.579Z,19.67
2019-02-17T20:26:38.352Z,18.20
2019-02-17T20:29:42.271Z,18.27
2019-02-17T20:32:45.834Z,24.33
2019-02-17T20:35:49.396Z,17.53
2019-02-17T20:38:52.966Z,21.97
2019-02-17T20:41:56.528Z,19.13
2019-02-17T20:45:00.214Z,16.13
2019-02-17T20:48:03.715Z,17.97
2019-02-17T20:51:07.272Z,20.20
2019-02-17T20:54:11.387Z,16.63
2019-02-17T20:57:14.944Z,15.83
2019-02-17T21:00:19.610Z,21.17
2019-02-17T21:03:23.441Z,19.00
2019-02-17T21:06:27.235Z,22.87
2019-02-17T21:09:30.787Z,18.83
2019-02-17T21:12:34.845Z,20.80
2019-02-17T21:15:38.411Z,33.83
2019-02-17T21:18:42.298Z,32.67
2019-02-17T21:21:45.870Z,325.83
2019-02-17T21:24:49.443Z,75.53
2019-02-17T21:27:53.001Z,65.50
2019-02-17T21:30:56.554Z,65.43
2019-02-17T21:34:00.159Z,56.80
2019-02-17T21:37:04.060Z,52.70
2019-02-17T21:40:09.206Z,52.43
2019-02-17T21:43:12.761Z,53.70
2019-02-17T21:46:16.840Z,45.17
2019-02-17T21:49:20.408Z,40.90
2019-02-17T21:52:23.961Z,41.73
2019-02-17T21:55:27.771Z,37.87
2019-02-17T21:58:31.500Z,39.87
2019-02-17T22:01:35.068Z,37.97
2019-02-17T22:04:38.987Z,32.80
2019-02-17T22:07:42.926Z,32.60
2019-02-17T22:10:46.725Z,29.50
2019-02-17T22:13:50.289Z,31.07
2019-02-17T22:16:53.863Z,54.67
2019-02-17T22:19:57.449Z,60.53
2019-02-17T22:23:00.989Z,65.37
2019-02-17T22:26:04.846Z,62.63
2019-02-17T22:29:08.401Z,60.97
2019-02-17T22:32:11.953Z,57.20
2019-02-17T22:35:15.762Z,58.33
2019-02-17T22:38:19.312Z,51.53
2019-02-17T22:41:23.178Z,55.20
2019-02-17T22:44:26.830Z,50.20
2019-02-17T22:47:30.385Z,49.37
2019-02-17T22:50:33.946Z,50.27
2019-02-17T22:53:43.523Z,48.47
2019-02-17T22:56:42.838Z,41.27
2019-02-17T22:59:46.764Z,41.77
2019-02-17T23:02:50.329Z,45.37
2019-02-17T23:05:54.284Z,43.63
2019-02-17T23:08:57.836Z,39.97
2019-02-17T23:12:01.675Z,37.60
2019-02-17T23:15:05.598Z,39.40
2019-02-17T23:18:09.408Z,36.73
2019-02-17T23:21:12.951Z,34.00
2019-02-17T23:24:16.579Z,37.90
2019-02-17T23:27:20.720Z,35.93
2019-02-17T23:30:24.550Z,33.07
2019-02-17T23:33:28.116Z,33.43
2019-02-17T23:36:31.967Z,31.00
2019-02-17T23:39:35.513Z,30.37
2019-02-17T23:42:39.086Z,29.27
2019-02-17T23:45:44.696Z,28.53
2019-02-17T23:48:48.292Z,26.83
2019-02-17T23:51:51.856Z,28.33
2019-02-17T23:54:55.403Z,28.70
2019-02-17T23:57:59.242Z,28.50
